createdAt,value
2023-05-15T00:00:44.659Z,101650.88
2023-05-15T00:03:12.339Z,101658.13
2023-05-15T00:05:39.493Z,101650.63
2023-05-15T00:08:06.208Z,101626.66
2023-05-15T00:10:32.615Z,101638.38
2023-05-15T00:12:59.081Z,101623.72
2023-05-15T00:15:25.704Z,101597.66
2023-05-15T00:17:55.470Z,101611.75
2023-05-15T00:20:22.266Z,101615.75
2023-05-15T00:22:49.209Z,101628.31
2023-05-15T00:25:15.721Z,101613.81
2023-05-15T00:27:42.264Z,101607.97
2023-05-15T00:30:09.283Z,101614.50
2023-05-15T00:32:35.778Z,101607.94
2023-05-15T00:35:02.241Z,101633.56
2023-05-15T00:37:28.671Z,101612.13
2023-05-15T00:39:55.052Z,101599.00
2023-05-15T00:42:23.589Z,101596.75
2023-05-15T00:44:52.265Z,101594.13
2023-05-15T00:47:20.873Z,101593.28
2023-05-15T00:49:49.256Z,101609.31
2023-05-15T00:52:15.849Z,101608.63
2023-05-15T00:54:42.309Z,101590.09
2023-05-15T00:57:10.415Z,101579.59
2023-05-15T00:59:39.383Z,101538.44
2023-05-15T01:02:05.924Z,101585.91
2023-05-15T01:04:32.361Z,101553.50
2023-05-15T01:06:58.931Z,101596.34
2023-05-15T01:09:27.398Z,101596.75
2023-05-15T01:11:57.713Z,101558.22
2023-05-15T01:14:24.111Z,101569.94
2023-05-15T01:16:50.547Z,101584.56
2023-05-15T01:19:17.494Z,101587.47
2023-05-15T01:22:08.633Z,101592.75
2023-05-15T01:24:59.431Z,101526.06
2023-05-15T01:27:47.974Z,101603.69
2023-05-15T01:30:34.357Z,101590.97
2023-05-15T01:33:08.914Z,101587.88
2023-05-15T01:35:55.794Z,101541.38
2023-05-15T01:38:34.528Z,101550.41
2023-05-15T01:41:23.824Z,101604.25
2023-05-15T01:43:56.460Z,101601.56
2023-05-15T01:46:24.022Z,101603.34
2023-05-15T01:48:52.180Z,101594.81
2023-05-15T01:51:20.607Z,101567.34
2023-05-15T01:53:49.123Z,101595.81
2023-05-15T01:56:16.830Z,101583.41
2023-05-15T01:58:44.483Z,101588.44
2023-05-15T02:01:11.723Z,101563.09
2023-05-15T02:03:38.606Z,101598.94
2023-05-15T02:06:06.147Z,101602.06
2023-05-15T02:08:33.209Z,101585.31
2023-05-15T02:11:01.541Z,101602.84
2023-05-15T02:13:28.977Z,101557.38
2023-05-15T02:15:55.483Z,101558.22
2023-05-15T02:18:22.220Z,101590.13
2023-05-15T02:20:48.734Z,101583.44
2023-05-15T02:23:15.302Z,101579.25
2023-05-15T02:26:13.808Z,101577.78
2023-05-15T02:29:05.712Z,101588.34
2023-05-15T02:31:41.548Z,101570.88
2023-05-15T02:34:46.592Z,101587.50
2023-05-15T02:37:18.244Z,101569.69
2023-05-15T02:39:46.197Z,101588.09
2023-05-15T02:42:14.788Z,101585.59
2023-05-15T02:44:42.546Z,101523.69
2023-05-15T02:47:09.930Z,101587.00
2023-05-15T02:49:37.505Z,101578.06
2023-05-15T02:52:04.194Z,101596.97
2023-05-15T02:54:32.002Z,101591.91
2023-05-15T02:56:58.479Z,101551.81
2023-05-15T02:59:24.946Z,101578.81
2023-05-15T03:01:51.559Z,101579.97
2023-05-15T03:04:18.023Z,101566.63
2023-05-15T03:06:44.462Z,101569.25
2023-05-15T03:09:10.864Z,101590.91
2023-05-15T03:11:37.330Z,101592.00
2023-05-15T03:14:03.953Z,101587.25
2023-05-15T03:16:30.499Z,101574.53
2023-05-15T03:18:57.094Z,101568.19
2023-05-15T03:21:23.544Z,101571.97
2023-05-15T03:23:49.956Z,101583.91
2023-05-15T03:26:16.592Z,101568.94
2023-05-15T03:28:42.999Z,101580.66
2023-05-15T03:31:09.550Z,101555.53
2023-05-15T03:33:36.041Z,101565.34
2023-05-15T03:36:02.473Z,101561.47
2023-05-15T03:38:28.917Z,101554.97
2023-05-15T03:40:55.383Z,101563.50
2023-05-15T03:43:21.807Z,101564.69
2023-05-15T03:45:48.285Z,101575.72
2023-05-15T03:48:14.742Z,101563.75
2023-05-15T03:50:41.272Z,101566.13
2023-05-15T03:53:07.773Z,101521.13
2023-05-15T03:55:35.363Z,101574.97
2023-05-15T03:58:02.186Z,101564.06
2023-05-15T04:00:28.736Z,101553.19
2023-05-15T04:02:55.654Z,101564.19
2023-05-15T04:05:22.682Z,101575.47
2023-05-15T04:07:49.334Z,101564.81
2023-05-15T04:10:15.777Z,101573.53
2023-05-15T04:12:42.162Z,101566.25
2023-05-15T04:15:15.686Z,101563.03
2023-05-15T04:17:45.569Z,101571.88
2023-05-15T04:20:16.873Z,101584.16
2023-05-15T04:22:44.085Z,101600.84
2023-05-15T04:25:12.010Z,101572.97
2023-05-15T04:27:38.748Z,101586.34
2023-05-15T04:30:06.526Z,101600.59
2023-05-15T04:32:33.934Z,101590.50
2023-05-15T04:35:01.380Z,101606.72
2023-05-15T04:37:28.861Z,101604.06
2023-05-15T04:39:55.494Z,101591.97
2023-05-15T04:42:21.884Z,101587.50
2023-05-15T04:44:48.376Z,101574.19
2023-05-15T04:47:14.795Z,101580.63
2023-05-15T04:49:42.073Z,101594.03
2023-05-15T04:52:08.704Z,101594.59
2023-05-15T04:54:35.109Z,101570.06
2023-05-15T04:57:01.592Z,101585.38
2023-05-15T04:59:28.780Z,101573.94
2023-05-15T05:01:55.305Z,101589.25
2023-05-15T05:04:21.739Z,101580.19
2023-05-15T05:06:48.201Z,101575.84
2023-05-15T05:09:14.815Z,101592.34
2023-05-15T05:11:43.650Z,101588.03
2023-05-15T05:14:16.464Z,101589.56
2023-05-15T05:16:45.527Z,101593.88
2023-05-15T05:19:12.073Z,101585.84
2023-05-15T05:21:38.676Z,101576.19
2023-05-15T05:24:05.264Z,101586.75
2023-05-15T05:26:31.735Z,101578.84
2023-05-15T05:28:58.166Z,101582.91
2023-05-15T05:31:24.664Z,101585.97
2023-05-15T05:33:52.661Z,101567.59
2023-05-15T05:36:19.155Z,101575.53
2023-05-15T05:38:45.641Z,101581.94
2023-05-15T05:41:12.096Z,101578.63
2023-05-15T05:43:38.508Z,101574.00
2023-05-15T05:46:04.932Z,101582.38
2023-05-15T05:48:31.442Z,101579.56
2023-05-15T05:50:58.172Z,101566.22
2023-05-15T05:53:24.626Z,101574.97
2023-05-15T05:55:51.544Z,101574.00
2023-05-15T06:00:50.890Z,101557.81
2023-05-15T06:03:17.461Z,101553.91
2023-05-15T06:05:44.097Z,101528.00
2023-05-15T06:08:10.571Z,101565.78
2023-05-15T06:10:36.990Z,101565.19
2023-05-15T06:13:03.414Z,101559.03
2023-05-15T06:15:29.864Z,101561.69
2023-05-15T06:17:56.613Z,101574.75
2023-05-15T06:20:23.334Z,101562.78
2023-05-15T06:22:49.968Z,101573.47
2023-05-15T06:25:16.395Z,101567.50
2023-05-15T06:27:43.086Z,101564.44
2023-05-15T06:30:10.298Z,101559.97
2023-05-15T06:32:36.854Z,101568.38
2023-05-15T06:35:03.571Z,101571.84
2023-05-15T06:37:30.528Z,101558.56
2023-05-15T06:39:56.939Z,101555.75
2023-05-15T06:42:23.725Z,101558.28
2023-05-15T06:44:50.311Z,101504.22
2023-05-15T06:47:16.853Z,101562.84
2023-05-15T06:49:43.254Z,101514.91
2023-05-15T06:52:09.757Z,101560.53
2023-05-15T06:54:36.647Z,101554.28
2023-05-15T06:57:03.068Z,101558.69
2023-05-15T06:59:29.532Z,101564.44
2023-05-15T07:01:56.097Z,101558.34
2023-05-15T07:04:22.724Z,101554.56
2023-05-15T07:06:49.244Z,101547.91
2023-05-15T07:09:15.655Z,101569.19
2023-05-15T07:11:42.236Z,101551.81
2023-05-15T07:14:08.679Z,101516.94
2023-05-15T07:16:35.155Z,101558.19
2023-05-15T07:19:01.836Z,101545.06
2023-05-15T07:21:28.334Z,101545.88
2023-05-15T07:23:54.852Z,101541.63
2023-05-15T07:26:32.520Z,101550.81
2023-05-15T07:29:04.168Z,101555.34
2023-05-15T07:31:33.811Z,101559.31
2023-05-15T07:34:00.341Z,101543.38
2023-05-15T07:36:26.823Z,101554.59
2023-05-15T07:38:53.307Z,101543.75
2023-05-15T07:41:19.748Z,101547.63
2023-05-15T07:43:46.256Z,101547.75
2023-05-15T07:46:12.786Z,101543.19
2023-05-15T07:48:39.266Z,101555.50
2023-05-15T07:51:06.313Z,101541.31
2023-05-15T07:53:33.247Z,101539.34
2023-05-15T07:55:59.875Z,101543.28
2023-05-15T07:58:26.322Z,101537.44
2023-05-15T08:00:52.910Z,101559.13
2023-05-15T08:03:19.565Z,101572.59
2023-05-15T08:05:47.207Z,101576.50
2023-05-15T08:08:13.667Z,101576.97
2023-05-15T08:10:40.117Z,101569.56
2023-05-15T08:13:06.496Z,101565.31
2023-05-15T08:15:32.970Z,101570.22
2023-05-15T08:17:59.446Z,101570.03
2023-05-15T08:20:26.283Z,101551.44
2023-05-15T08:22:52.772Z,101536.97
2023-05-15T08:25:19.168Z,101565.56
2023-05-15T08:27:45.586Z,101562.72
2023-05-15T08:30:12.696Z,101553.28
2023-05-15T08:32:39.129Z,101568.34
2023-05-15T08:35:06.189Z,101571.63
2023-05-15T08:37:33.873Z,101539.03
2023-05-15T08:40:00.457Z,101536.78
2023-05-15T08:42:40.016Z,101563.94
2023-05-15T08:45:07.648Z,101564.88
2023-05-15T08:47:38.672Z,101564.38
2023-05-15T08:50:05.290Z,101578.00
2023-05-15T08:52:35.253Z,101561.44
2023-05-15T08:55:02.488Z,101560.63
2023-05-15T08:57:29.709Z,101582.59
2023-05-15T08:59:56.909Z,101573.66
2023-05-15T09:02:26.053Z,101558.63
2023-05-15T09:04:52.705Z,101572.91
2023-05-15T09:07:20.569Z,101583.31
2023-05-15T09:09:47.512Z,101584.16
2023-05-15T09:12:15.771Z,101571.31
2023-05-15T09:14:45.566Z,101581.81
2023-05-15T09:17:12.251Z,101580.47
2023-05-15T09:19:40.328Z,101583.78
2023-05-15T09:22:24.272Z,101580.28
2023-05-15T09:24:53.114Z,101575.34
2023-05-15T09:27:20.481Z,101584.22
2023-05-15T09:29:47.195Z,101558.63
2023-05-15T09:32:15.238Z,101581.44
2023-05-15T09:34:43.993Z,101534.00
2023-05-15T09:37:13.148Z,101578.69
2023-05-15T09:39:44.051Z,101573.00
2023-05-15T09:42:13.594Z,101578.78
2023-05-15T09:44:43.999Z,101588.56
2023-05-15T09:47:11.713Z,101584.09
2023-05-15T09:49:38.970Z,101586.44
2023-05-15T09:52:09.806Z,101583.41
2023-05-15T09:54:37.514Z,101585.06
2023-05-15T09:57:08.481Z,101584.25
2023-05-15T09:59:34.988Z,101545.34
2023-05-15T10:02:01.475Z,101546.16
2023-05-15T10:04:34.677Z,101593.81
2023-05-15T10:07:01.232Z,101586.25
2023-05-15T10:09:31.433Z,101595.88
2023-05-15T10:11:58.730Z,101586.31
2023-05-15T10:14:26.717Z,101546.59
2023-05-15T10:16:55.314Z,101586.31
2023-05-15T10:19:23.972Z,101576.31
2023-05-15T10:21:53.046Z,101589.19
2023-05-15T10:24:21.229Z,101581.53
2023-05-15T10:26:49.139Z,101581.38
2023-05-15T10:29:19.092Z,101576.06
2023-05-15T10:31:46.214Z,101592.13
2023-05-15T10:34:13.734Z,101581.94
2023-05-15T10:36:43.123Z,101567.50
2023-05-15T10:39:09.707Z,101586.69
2023-05-15T10:41:38.530Z,101582.50
2023-05-15T10:44:05.008Z,101578.56
2023-05-15T10:46:34.871Z,101587.91
2023-05-15T10:49:01.818Z,101577.03
2023-05-15T10:51:29.947Z,101578.25
2023-05-15T10:53:57.299Z,101574.84
2023-05-15T10:56:30.698Z,101580.91
2023-05-15T10:58:57.364Z,101572.34
2023-05-15T11:01:32.421Z,101570.47
2023-05-15T11:04:15.851Z,101587.13
2023-05-15T11:06:50.091Z,101565.06
2023-05-15T11:09:22.577Z,101588.44
2023-05-15T11:11:52.626Z,101583.50
2023-05-15T11:14:19.572Z,101579.94
2023-05-15T11:16:55.498Z,101590.19
2023-05-15T11:19:25.065Z,101593.59
2023-05-15T11:21:58.789Z,101578.13
2023-05-15T11:24:33.009Z,101582.69
2023-05-15T11:27:04.226Z,101563.63
2023-05-15T11:29:31.605Z,101583.34
2023-05-15T11:31:58.558Z,101581.81
2023-05-15T11:34:33.508Z,101555.34
2023-05-15T11:37:00.887Z,101579.84
2023-05-15T11:39:28.614Z,101583.78
2023-05-15T11:41:55.363Z,101547.81
2023-05-15T11:44:23.301Z,101580.94
2023-05-15T11:46:53.758Z,101539.91
2023-05-15T11:49:20.619Z,101559.03
2023-05-15T11:51:51.564Z,101539.19
2023-05-15T11:54:18.584Z,101564.13
2023-05-15T11:56:45.038Z,101560.38
2023-05-15T11:59:17.219Z,101563.63
2023-05-15T12:01:47.650Z,101555.47
2023-05-15T12:04:15.618Z,101554.66
2023-05-15T12:06:44.510Z,101551.81
2023-05-15T12:09:19.354Z,101558.88
2023-05-15T12:11:51.807Z,101545.53
2023-05-15T12:14:18.256Z,101559.03
2023-05-15T12:16:44.657Z,101548.88
2023-05-15T12:19:11.970Z,101559.25
2023-05-15T12:21:43.209Z,101550.88
2023-05-15T12:24:11.883Z,101515.03
2023-05-15T12:26:39.383Z,101536.56
2023-05-15T12:29:06.457Z,101515.09
2023-05-15T12:31:36.529Z,101553.31
2023-05-15T12:34:03.210Z,101549.00
2023-05-15T12:36:31.037Z,101541.16
2023-05-15T12:38:58.385Z,101550.66
2023-05-15T12:41:29.555Z,101543.66
2023-05-15T12:43:55.975Z,101545.97
2023-05-15T12:46:29.344Z,101547.47
2023-05-15T12:48:58.800Z,101540.06
2023-05-15T12:51:25.509Z,101526.44
2023-05-15T12:53:57.481Z,101553.72
2023-05-15T12:56:24.046Z,101555.09
2023-05-15T12:58:51.362Z,101549.16
2023-05-15T13:01:17.907Z,101568.94
2023-05-15T13:03:45.258Z,101556.72
2023-05-15T13:06:11.806Z,101558.22
2023-05-15T13:08:42.494Z,101565.81
2023-05-15T13:11:13.912Z,101558.97
2023-05-15T13:13:45.420Z,101563.81
2023-05-15T13:16:38.823Z,101567.81
2023-05-15T13:19:06.411Z,101541.72
2023-05-15T13:21:32.967Z,101568.66
2023-05-15T13:23:59.385Z,101559.31
2023-05-15T13:26:26.097Z,101565.38
2023-05-15T13:28:52.555Z,101583.34
2023-05-15T13:31:19.132Z,101582.50
2023-05-15T13:33:45.746Z,101586.59
2023-05-15T13:36:12.352Z,101575.13
2023-05-15T13:38:39.281Z,101588.25
2023-05-15T13:41:05.842Z,101595.88
2023-05-15T13:43:32.260Z,101571.47
2023-05-15T13:45:59.002Z,101590.09
2023-05-15T13:48:25.671Z,101592.44
2023-05-15T13:50:52.292Z,101596.16
2023-05-15T13:53:18.811Z,101608.00
2023-05-15T13:55:46.108Z,101594.50
2023-05-15T13:58:13.199Z,101601.09
2023-05-15T14:00:42.449Z,101592.28
2023-05-15T14:03:08.995Z,101591.72
2023-05-15T14:05:35.602Z,101586.09
2023-05-15T14:08:02.167Z,101566.34
2023-05-15T14:10:28.899Z,101591.25
2023-05-15T14:12:55.302Z,101603.84
2023-05-15T14:15:21.788Z,101605.44
2023-05-15T14:17:48.831Z,101619.44
2023-05-15T14:20:15.459Z,101603.84
2023-05-15T14:22:42.029Z,101599.28
2023-05-15T14:25:09.434Z,101585.31
2023-05-15T14:27:35.982Z,101598.72
2023-05-15T14:30:02.397Z,101589.06
2023-05-15T14:32:28.833Z,101598.75
2023-05-15T14:34:59.705Z,101601.25
2023-05-15T14:37:27.465Z,101588.94
2023-05-15T14:39:54.134Z,101599.00
2023-05-15T14:42:21.211Z,101600.75
2023-05-15T14:44:48.387Z,101591.59
2023-05-15T14:47:16.233Z,101590.78
2023-05-15T14:49:42.981Z,101605.66
2023-05-15T14:52:11.371Z,101618.28
2023-05-15T14:54:38.535Z,101597.84
2023-05-15T14:57:05.363Z,101612.31
2023-05-15T14:59:31.855Z,101590.72
2023-05-15T15:01:58.459Z,101608.19
2023-05-15T15:04:26.664Z,101614.50
2023-05-15T15:06:56.728Z,101627.63
2023-05-15T15:09:23.775Z,101610.22
2023-05-15T15:11:50.296Z,101614.38
2023-05-15T15:14:17.055Z,101617.34
2023-05-15T15:16:44.498Z,101626.66
2023-05-15T15:19:11.122Z,101624.66
2023-05-15T15:21:37.702Z,101623.22
2023-05-15T15:24:04.306Z,101601.56
2023-05-15T15:26:30.852Z,101618.53
2023-05-15T15:29:00.864Z,101612.09
2023-05-15T15:31:29.088Z,101604.13
2023-05-15T15:33:56.352Z,101603.41
2023-05-15T15:36:23.633Z,101607.44
2023-05-15T15:38:50.311Z,101614.13
2023-05-15T15:41:17.045Z,101617.84
2023-05-15T15:43:43.529Z,101619.53
2023-05-15T15:46:10.104Z,101595.38
2023-05-15T15:48:36.714Z,101613.63
2023-05-15T15:51:03.460Z,101618.06
2023-05-15T15:53:34.011Z,101613.75
2023-05-15T15:56:01.350Z,101618.38
2023-05-15T15:58:27.839Z,101613.22
2023-05-15T16:00:54.302Z,101610.19
2023-05-15T16:03:20.879Z,101619.22
2023-05-15T16:05:47.461Z,101617.41
2023-05-15T16:08:13.844Z,101629.97
2023-05-15T16:10:40.768Z,101616.81
2023-05-15T16:13:07.313Z,101620.75
2023-05-15T16:15:33.760Z,101612.72
2023-05-15T16:18:01.174Z,101613.53
2023-05-15T16:20:27.920Z,101624.38
2023-05-15T16:22:54.620Z,101637.66
2023-05-15T16:25:21.286Z,101632.88
2023-05-15T16:27:47.727Z,101633.50
2023-05-15T16:30:14.432Z,101640.66
2023-05-15T16:32:40.934Z,101622.63
2023-05-15T16:35:07.862Z,101641.44
2023-05-15T16:37:34.319Z,101647.47
2023-05-15T16:40:00.741Z,101631.38
2023-05-15T16:42:27.147Z,101643.06
2023-05-15T16:44:53.566Z,101626.81
2023-05-15T16:47:19.997Z,101622.78
2023-05-15T16:49:48.334Z,101655.97
2023-05-15T16:52:16.352Z,101624.91
2023-05-15T16:54:42.777Z,101664.22
2023-05-15T16:57:09.189Z,101685.16
2023-05-15T16:59:35.668Z,101668.50
2023-05-15T17:02:02.150Z,101671.16
2023-05-15T17:04:30.766Z,101667.81
2023-05-15T17:06:58.643Z,101677.31
2023-05-15T17:09:25.054Z,101680.53
2023-05-15T17:11:51.552Z,101646.19
2023-05-15T17:14:17.974Z,101689.44
2023-05-15T17:16:45.550Z,101697.19
2023-05-15T17:19:12.541Z,101687.56
2023-05-15T17:21:39.064Z,101685.03
2023-05-15T17:24:05.637Z,101679.28
2023-05-15T17:26:32.053Z,101689.00
2023-05-15T17:28:58.457Z,101706.97
2023-05-15T17:31:25.031Z,101718.81
2023-05-15T17:33:51.528Z,101702.66
2023-05-15T17:36:17.970Z,101681.00
2023-05-15T17:38:44.626Z,101687.34
2023-05-15T17:41:11.211Z,101691.25
2023-05-15T17:43:37.786Z,101719.28
2023-05-15T17:46:05.675Z,101710.06
2023-05-15T17:48:32.850Z,101733.66
2023-05-15T17:50:59.288Z,101733.22
2023-05-15T17:53:25.843Z,101718.78
2023-05-15T17:55:52.533Z,101720.72
2023-05-15T17:58:18.995Z,101741.13
2023-05-15T18:00:46.000Z,101732.38
2023-05-15T18:03:12.514Z,101741.84
2023-05-15T18:05:39.051Z,101738.25
2023-05-15T18:08:06.755Z,101735.50
2023-05-15T18:10:33.160Z,101751.38
2023-05-15T18:12:59.552Z,101734.50
2023-05-15T18:15:26.282Z,101740.97
2023-05-15T18:17:52.908Z,101756.72
2023-05-15T18:20:19.465Z,101749.84
2023-05-15T18:22:46.084Z,101747.53
2023-05-15T18:25:12.637Z,101729.78
2023-05-15T18:27:39.190Z,101761.88
2023-05-15T18:30:06.647Z,101768.41
2023-05-15T18:32:33.563Z,101763.81
2023-05-15T18:35:00.065Z,101764.34
2023-05-15T18:37:27.049Z,101765.06
2023-05-15T18:39:56.676Z,101785.50
2023-05-15T18:42:25.317Z,101783.28
2023-05-15T18:44:52.418Z,101764.50
2023-05-15T18:47:18.979Z,101799.16
2023-05-15T18:49:45.894Z,101800.31
2023-05-15T18:52:12.748Z,101788.00
2023-05-15T18:54:41.262Z,101790.41
2023-05-15T18:57:08.281Z,101786.63
2023-05-15T18:59:34.822Z,101804.38
2023-05-15T19:02:01.297Z,101790.59
2023-05-15T19:04:27.769Z,101795.50
2023-05-15T19:06:54.216Z,101789.97
2023-05-15T19:09:20.636Z,101810.75
2023-05-15T19:11:51.664Z,101787.84
2023-05-15T19:14:18.720Z,101815.56
2023-05-15T19:16:46.079Z,101829.59
2023-05-15T19:19:13.152Z,101830.06
2023-05-15T19:21:39.702Z,101840.34
2023-05-15T19:24:06.296Z,101809.75
2023-05-15T19:26:32.734Z,101829.13
2023-05-15T19:28:59.200Z,101825.97
2023-05-15T19:31:31.430Z,101801.84
2023-05-15T19:33:59.099Z,101828.13
2023-05-15T19:36:25.892Z,101820.56
2023-05-15T19:38:55.229Z,101856.16
2023-05-15T19:41:22.550Z,101841.50
2023-05-15T19:43:50.770Z,101841.28
2023-05-15T19:46:18.223Z,101861.94
2023-05-15T19:48:44.835Z,101831.44
2023-05-15T19:51:11.309Z,101867.44
2023-05-15T19:53:37.793Z,101869.50
2023-05-15T19:56:04.881Z,101866.00
2023-05-15T19:58:32.050Z,101859.75
2023-05-15T20:00:58.936Z,101870.44
2023-05-15T20:03:32.539Z,101873.16
2023-05-15T20:06:01.258Z,101876.56
2023-05-15T20:08:28.226Z,101879.91
2023-05-15T20:10:54.912Z,101890.94
2023-05-15T20:13:22.244Z,101885.91
2023-05-15T20:15:54.799Z,101878.41
2023-05-15T20:18:21.904Z,101890.03
2023-05-15T20:20:48.333Z,101888.25
2023-05-15T20:23:14.748Z,101884.25
2023-05-15T20:25:41.458Z,101914.00
2023-05-15T20:28:07.861Z,101915.06
2023-05-15T20:30:34.249Z,101901.56
2023-05-15T20:33:00.908Z,101908.13
2023-05-15T20:35:28.011Z,101909.75
2023-05-15T20:37:57.425Z,101900.66
2023-05-15T20:40:27.398Z,101909.69
2023-05-15T20:42:54.029Z,101910.41
2023-05-15T20:45:20.778Z,101918.84
2023-05-15T20:47:47.235Z,101906.44
2023-05-15T20:50:13.745Z,101922.19
2023-05-15T20:52:40.300Z,101935.34
2023-05-15T20:55:15.882Z,101916.47
2023-05-15T20:57:44.295Z,101935.84
2023-05-15T21:00:11.824Z,101921.66
2023-05-15T21:02:38.701Z,101927.81
2023-05-15T21:05:05.781Z,101926.13
2023-05-15T21:07:32.224Z,101934.00
2023-05-15T21:09:58.653Z,101926.81
2023-05-15T21:12:25.089Z,101939.22
2023-05-15T21:14:51.540Z,101921.19
2023-05-15T21:17:18.106Z,101927.19
2023-05-15T21:19:44.778Z,101952.03
2023-05-15T21:22:11.188Z,101942.94
2023-05-15T21:24:37.596Z,101952.03
2023-05-15T21:27:04.013Z,101938.41
2023-05-15T21:29:30.590Z,101945.72
2023-05-15T21:31:57.260Z,101948.84
2023-05-15T21:34:23.640Z,101953.06
2023-05-15T21:36:50.241Z,101945.72
2023-05-15T21:39:16.705Z,101951.09
2023-05-15T21:41:43.144Z,101901.00
2023-05-15T21:44:09.612Z,101969.84
2023-05-15T21:46:36.020Z,101958.41
2023-05-15T21:49:02.452Z,101957.44
2023-05-15T21:51:28.944Z,101958.41
2023-05-15T21:53:55.390Z,101971.47
2023-05-15T21:56:21.857Z,101949.50
2023-05-15T21:58:48.374Z,101963.34
2023-05-15T22:01:16.778Z,101973.00
2023-05-15T22:03:43.276Z,101966.06
2023-05-15T22:06:09.832Z,101978.53
2023-05-15T22:08:36.236Z,101977.28
2023-05-15T22:11:03.550Z,101985.91
2023-05-15T22:13:29.994Z,101990.13
2023-05-15T22:15:56.850Z,101981.69
2023-05-15T22:18:23.330Z,101979.41
2023-05-15T22:20:50.424Z,101992.91
2023-05-15T22:23:16.837Z,101990.16
2023-05-15T22:25:43.752Z,101983.25
2023-05-15T22:28:10.186Z,101991.22
2023-05-15T22:30:36.601Z,101987.25
2023-05-15T22:33:03.047Z,101983.13
2023-05-15T22:35:29.584Z,101988.84
2023-05-15T22:37:57.062Z,101998.19
2023-05-15T22:40:23.638Z,101978.09
2023-05-15T22:42:50.266Z,101991.28
2023-05-15T22:45:18.366Z,102012.94
2023-05-15T22:47:45.350Z,102016.66
2023-05-15T22:50:12.027Z,102002.22
2023-05-15T22:52:38.644Z,102000.44
2023-05-15T22:55:05.731Z,102006.66
2023-05-15T22:57:32.445Z,101980.84
2023-05-15T22:59:58.867Z,101993.25
2023-05-15T23:02:25.373Z,102030.38
2023-05-15T23:04:51.837Z,102002.34
2023-05-15T23:07:18.283Z,102011.09
2023-05-15T23:09:44.708Z,102023.00
2023-05-15T23:12:11.174Z,101993.59
2023-05-15T23:14:37.606Z,102021.50
2023-05-15T23:17:04.420Z,102021.59
2023-05-15T23:19:30.880Z,102004.00
2023-05-15T23:21:57.329Z,102033.06
2023-05-15T23:24:23.788Z,102020.72
2023-05-15T23:26:50.196Z,102019.91
2023-05-15T23:29:16.890Z,102028.53
2023-05-15T23:31:43.410Z,102019.44
2023-05-15T23:34:09.852Z,102018.50
2023-05-15T23:36:36.306Z,102011.97
2023-05-15T23:39:02.785Z,102015.00
2023-05-15T23:41:29.202Z,102028.81
2023-05-15T23:43:55.727Z,102009.97
2023-05-15T23:46:22.171Z,102029.66
2023-05-15T23:48:48.604Z,102030.59
2023-05-15T23:51:15.065Z,102005.22
2023-05-15T23:53:41.492Z,102030.47
2023-05-15T23:56:08.345Z,101989.59
2023-05-15T23:58:34.772Z,102013.84
